Time;durP1;ratioP1;P1;durP2;ratioP2;P2;SDS_P1;SDS_P2;PMS_P1;PMS_P2;Temp;Humidity;BMP_temperature;BMP_pressure;BME280_temperature;BME280_humidity;BME280_pressure;Samples;Min_cycle;Max_cycle;Signal;HPM_P1;HPM_P2
2021/04/24 00:01:36;;;;;;;10.07;6.75;;;;;;;;;;4971570;28;20101;-51
2021/04/24 00:04:01;;;;;;;8.68;5.72;;;;;;;;;;4972449;28;20049;-52
2021/04/24 00:06:27;;;;;;;12.52;9.10;;;;;;;;;;4971149;28;20475;-54
2021/04/24 00:08:53;;;;;;;10.40;8.15;;;;;;;;;;4970878;28;20061;-53
2021/04/24 00:11:18;;;;;;;9.13;6.88;;;;;;;;;;4971151;28;20101;-50
2021/04/24 00:13:44;;;;;;;9.05;6.25;;;;;;;;;;4971907;28;20023;-49
2021/04/24 00:16:10;;;;;;;12.23;5.80;;;;;;;;;;4972708;28;20339;-51
2021/04/24 00:18:35;;;;;;;7.15;6.03;;;;;;;;;;4971002;28;20111;-56
2021/04/24 00:21:00;;;;;;;20.88;10.68;;;;;;;;;;4966510;28;20039;-53
2021/04/24 00:23:26;;;;;;;24.50;8.30;;;;;;;;;;4973082;28;20406;-52
2021/04/24 00:25:51;;;;;;;5.30;3.97;;;;;;;;;;4972821;28;20089;-50
2021/04/24 00:28:16;;;;;;;5.45;3.78;;;;;;;;;;4971620;28;20574;-53
2021/04/24 00:30:42;;;;;;;4.00;3.50;;;;;;;;;;4971322;28;20030;-54
2021/04/24 00:33:07;;;;;;;7.03;4.32;;;;;;;;;;4974984;28;20035;-51
2021/04/24 00:35:33;;;;;;;5.18;3.85;;;;;;;;;;4976034;28;20053;-54
2021/04/24 00:37:58;;;;;;;12.23;4.88;;;;;;;;;;4972529;28;20031;-52
2021/04/24 00:40:23;;;;;;;5.35;4.43;;;;;;;;;;4970419;28;20018;-55
2021/04/24 00:42:49;;;;;;;5.32;4.70;;;;;;;;;;4972549;28;20263;-49
2021/04/24 00:45:15;;;;;;;9.25;3.58;;;;;;;;;;4970804;28;20372;-52
2021/04/24 00:47:41;;;;;;;8.95;5.53;;;;;;;;;;4977382;28;20776;-54
2021/04/24 00:50:07;;;;;;;4.38;3.35;;;;;;;;;;4974074;28;20077;-53
2021/04/24 00:52:33;;;;;;;4.45;4.00;;;;;;;;;;4970149;28;20070;-51
2021/04/24 00:54:58;;;;;;;15.18;7.93;;;;;;;;;;4970477;28;20022;-54
2021/04/24 00:57:25;;;;;;;8.13;4.95;;;;;;;;;;4971233;28;20506;-54
2021/04/24 00:59:50;;;;;;;6.00;4.32;;;;;;;;;;4970832;28;20515;-53
2021/04/24 01:02:15;;;;;;;7.50;3.13;;;;;;;;;;4971304;28;20037;-54
2021/04/24 01:04:41;;;;;;;4.10;3.03;;;;;;;;;;4972834;28;20031;-54
2021/04/24 01:07:06;;;;;;;3.10;1.92;;;;;;;;;;4972822;28;20574;-52
2021/04/24 01:09:32;;;;;;;6.35;4.10;;;;;;;;;;4976011;28;20029;-52
2021/04/24 01:11:57;;;;;;;3.45;2.78;;;;;;;;;;4964052;28;20081;-51
2021/04/24 01:14:23;;;;;;;2.70;2.00;;;;;;;;;;4977310;28;20021;-53
2021/04/24 01:16:48;;;;;;;6.65;3.58;;;;;;;;;;4974312;28;20601;-53
2021/04/24 01:19:14;;;;;;;6.70;3.00;;;;;;;;;;4973050;28;20038;-53
2021/04/24 01:21:40;;;;;;;12.57;5.68;;;;;;;;;;4970905;28;20031;-54
2021/04/24 01:24:06;;;;;;;12.77;6.88;;;;;;;;;;4974135;28;20622;-53
2021/04/24 01:26:33;;;;;;;36.67;20.48;;;;;;;;;;4973518;28;20046;-55
2021/04/24 01:28:59;;;;;;;29.48;12.60;;;;;;;;;;4972690;28;20033;-49
2021/04/24 01:31:24;;;;;;;8.25;4.75;;;;;;;;;;4972529;28;20034;-52
2021/04/24 01:33:49;;;;;;;8.82;4.65;;;;;;;;;;4970916;28;20413;-50
2021/04/24 01:36:15;;;;;;;7.38;3.95;;;;;;;;;;4971421;28;20029;-54
2021/04/24 01:38:40;;;;;;;9.45;5.00;;;;;;;;;;4970998;28;20030;-51
2021/04/24 01:41:05;;;;;;;11.50;3.10;;;;;;;;;;4977223;28;20033;-53
2021/04/24 01:43:32;;;;;;;8.57;2.90;;;;;;;;;;4974150;28;20328;-53
2021/04/24 01:45:58;;;;;;;6.60;3.47;;;;;;;;;;4975139;28;20066;-54
2021/04/24 01:48:23;;;;;;;8.23;3.22;;;;;;;;;;4960661;28;20478;-53
2021/04/24 01:50:48;;;;;;;5.50;2.83;;;;;;;;;;4973638;28;20062;-55
2021/04/24 01:53:21;;;;;;;3.95;2.58;;;;;;;;;;4972380;28;20045;-55
2021/04/24 01:55:47;;;;;;;3.75;2.90;;;;;;;;;;4971283;28;20049;-54
2021/04/24 01:58:16;;;;;;;5.63;3.75;;;;;;;;;;4975297;28;20574;-53
2021/04/24 02:00:43;;;;;;;6.50;5.80;;;;;;;;;;4970447;28;20049;-54
2021/04/24 02:03:13;;;;;;;9.57;6.50;;;;;;;;;;4976322;28;20035;-55
2021/04/24 02:05:39;;;;;;;4.90;4.40;;;;;;;;;;4975721;28;20475;-54
2021/04/24 02:08:06;;;;;;;17.02;7.03;;;;;;;;;;4972288;28;20110;-54
2021/04/24 02:10:32;;;;;;;11.63;6.05;;;;;;;;;;4970210;28;20030;-53
2021/04/24 02:12:59;;;;;;;9.57;3.97;;;;;;;;;;4970659;28;20125;-54
2021/04/24 02:15:24;;;;;;;6.97;5.10;;;;;;;;;;4970888;28;20019;-50
2021/04/24 02:17:50;;;;;;;13.43;5.88;;;;;;;;;;4969914;28;20027;-53
2021/04/24 02:20:15;;;;;;;3.78;3.38;;;;;;;;;;4970850;28;20030;-55
2021/04/24 02:22:42;;;;;;;10.60;5.78;;;;;;;;;;4970300;28;20042;-55
2021/04/24 02:25:07;;;;;;;5.43;3.92;;;;;;;;;;4970781;28;20030;-52
2021/04/24 02:27:33;;;;;;;5.35;3.15;;;;;;;;;;4973688;28;20430;-52
2021/04/24 02:29:58;;;;;;;3.00;2.08;;;;;;;;;;4969836;28;20039;-53
2021/04/24 02:32:29;;;;;;;3.35;3.05;;;;;;;;;;4974054;28;20450;-53
2021/04/24 02:34:54;;;;;;;55.95;30.02;;;;;;;;;;4970736;28;20019;-51
2021/04/24 02:37:20;;;;;;;73.28;33.17;;;;;;;;;;4970608;28;20523;-53
2021/04/24 02:39:47;;;;;;;40.88;20.83;;;;;;;;;;4971576;28;20093;-51
2021/04/24 02:42:14;;;;;;;23.02;13.50;;;;;;;;;;4976804;28;20137;-52
2021/04/24 02:44:40;;;;;;;9.43;6.30;;;;;;;;;;4972281;28;20023;-55
2021/04/24 02:47:05;;;;;;;6.15;4.63;;;;;;;;;;4971609;28;20483;-52
2021/04/24 02:49:31;;;;;;;10.98;5.30;;;;;;;;;;4977308;28;20027;-49
2021/04/24 02:51:57;;;;;;;5.18;3.95;;;;;;;;;;4969556;28;20039;-53
2021/04/24 02:54:23;;;;;;;8.20;4.95;;;;;;;;;;4971005;28;20583;-54
2021/04/24 02:56:49;;;;;;;8.05;4.50;;;;;;;;;;4973703;28;20181;-52
2021/04/24 02:59:14;;;;;;;6.28;3.70;;;;;;;;;;4969521;28;20491;-54
2021/04/24 03:01:40;;;;;;;5.03;3.83;;;;;;;;;;4969568;28;20490;-53
2021/04/24 03:04:06;;;;;;;6.72;3.05;;;;;;;;;;4969188;28;20030;-54
2021/04/24 03:06:31;;;;;;;7.70;3.33;;;;;;;;;;4970816;28;20035;-54
2021/04/24 03:08:57;;;;;;;17.08;4.20;;;;;;;;;;4969585;28;20073;-53
2021/04/24 03:11:22;;;;;;;5.63;4.15;;;;;;;;;;4953589;28;20050;-53
2021/04/24 03:13:47;;;;;;;7.70;4.18;;;;;;;;;;4971891;28;20023;-53
2021/04/24 03:16:13;;;;;;;7.22;4.35;;;;;;;;;;4970012;28;20460;-54
2021/04/24 03:18:38;;;;;;;7.20;3.88;;;;;;;;;;4972500;28;20117;-54
2021/04/24 03:21:04;;;;;;;11.57;4.07;;;;;;;;;;4958598;28;20036;-55
2021/04/24 03:23:29;;;;;;;6.65;4.60;;;;;;;;;;4976982;28;20030;-53
2021/04/24 03:25:55;;;;;;;10.00;4.78;;;;;;;;;;4974533;28;20470;-50
2021/04/24 03:28:20;;;;;;;4.80;3.90;;;;;;;;;;4977899;28;20108;-55
2021/04/24 03:30:45;;;;;;;4.47;3.50;;;;;;;;;;4975331;28;20022;-53
2021/04/24 03:33:11;;;;;;;5.47;3.25;;;;;;;;;;4973852;28;20113;-50
2021/04/24 03:35:39;;;;;;;4.65;3.72;;;;;;;;;;4974100;28;20402;-55
2021/04/24 03:38:05;;;;;;;9.60;4.45;;;;;;;;;;4973637;28;20489;-50
2021/04/24 03:40:30;;;;;;;9.18;4.82;;;;;;;;;;4977756;28;20030;-53
2021/04/24 03:42:55;;;;;;;10.20;5.25;;;;;;;;;;4978566;28;20031;-51
2021/04/24 03:45:22;;;;;;;10.00;6.68;;;;;;;;;;4975626;28;20030;-51
2021/04/24 03:47:49;;;;;;;11.40;5.93;;;;;;;;;;4973640;28;20483;-53
2021/04/24 03:50:15;;;;;;;8.00;5.63;;;;;;;;;;4974400;28;20034;-53
2021/04/24 03:52:41;;;;;;;11.25;7.72;;;;;;;;;;4973250;28;20059;-55
2021/04/24 03:55:06;;;;;;;5.22;4.72;;;;;;;;;;4972711;28;20051;-53
2021/04/24 03:57:32;;;;;;;8.57;7.70;;;;;;;;;;4973251;28;20030;-52
2021/04/24 03:59:58;;;;;;;11.57;7.45;;;;;;;;;;4972987;28;20659;-52
2021/04/24 04:02:23;;;;;;;12.55;8.07;;;;;;;;;;4973805;28;20035;-51
2021/04/24 04:04:49;;;;;;;9.43;6.85;;;;;;;;;;4972510;28;20027;-55
2021/04/24 04:07:14;;;;;;;8.38;5.68;;;;;;;;;;4974314;28;20050;-55
2021/04/24 04:09:39;;;;;;;7.35;3.03;;;;;;;;;;4974045;28;20336;-54
2021/04/24 04:12:05;;;;;;;10.38;3.05;;;;;;;;;;4973248;28;20034;-51
2021/04/24 04:14:30;;;;;;;6.60;3.47;;;;;;;;;;4972702;28;20510;-54
2021/04/24 04:16:55;;;;;;;4.40;3.47;;;;;;;;;;4979336;28;20027;-54
2021/04/24 04:19:21;;;;;;;4.07;3.03;;;;;;;;;;4973882;28;20171;-53
2021/04/24 04:21:46;;;;;;;4.38;3.97;;;;;;;;;;4960934;28;20069;-53
2021/04/24 04:24:11;;;;;;;2.70;2.25;;;;;;;;;;4972347;28;20037;-54
2021/04/24 04:26:37;;;;;;;10.93;3.13;;;;;;;;;;4973645;28;20034;-55
2021/04/24 04:29:02;;;;;;;4.70;2.22;;;;;;;;;;4973466;28;20030;-56
2021/04/24 04:31:27;;;;;;;8.20;3.50;;;;;;;;;;4972866;28;20023;-52
2021/04/24 04:33:53;;;;;;;3.88;3.25;;;;;;;;;;4974457;28;20591;-51
2021/04/24 04:36:18;;;;;;;5.50;3.83;;;;;;;;;;4974416;28;20015;-53
2021/04/24 04:38:43;;;;;;;6.50;4.13;;;;;;;;;;4975705;28;20504;-55
2021/04/24 04:41:09;;;;;;;7.40;4.88;;;;;;;;;;4973900;28;20023;-54
2021/04/24 04:43:34;;;;;;;14.90;9.10;;;;;;;;;;4972587;28;20030;-51
2021/04/24 04:45:59;;;;;;;11.88;8.30;;;;;;;;;;4972496;28;20027;-54
2021/04/24 04:48:25;;;;;;;17.73;5.97;;;;;;;;;;4974159;28;20038;-54
2021/04/24 04:50:50;;;;;;;14.05;4.82;;;;;;;;;;4971956;28;20023;-54
2021/04/24 04:53:15;;;;;;;5.95;4.72;;;;;;;;;;4977400;28;20038;-55
2021/04/24 04:55:41;;;;;;;13.40;5.53;;;;;;;;;;4980666;28;20031;-61
2021/04/24 04:58:06;;;;;;;5.45;4.13;;;;;;;;;;4973357;28;20042;-61
2021/04/24 05:00:32;;;;;;;12.00;7.72;;;;;;;;;;4971633;28;20430;-61
2021/04/24 05:02:57;;;;;;;9.23;4.88;;;;;;;;;;4972890;28;20050;-61
2021/04/24 05:05:23;;;;;;;13.38;5.70;;;;;;;;;;4971839;28;20033;-60
2021/04/24 05:07:49;;;;;;;8.65;4.15;;;;;;;;;;4972086;28;20097;-61
2021/04/24 05:10:15;;;;;;;4.70;4.10;;;;;;;;;;4961798;28;20026;-61
2021/04/24 05:12:40;;;;;;;5.32;4.28;;;;;;;;;;4972612;28;20035;-61
2021/04/24 05:15:06;;;;;;;6.72;4.10;;;;;;;;;;4972187;28;20026;-61
2021/04/24 05:17:32;;;;;;;13.50;9.45;;;;;;;;;;4971554;28;20027;-61
2021/04/24 05:19:57;;;;;;;10.90;7.18;;;;;;;;;;4972181;28;20478;-60
2021/04/24 05:22:22;;;;;;;8.73;5.90;;;;;;;;;;4971728;28;20443;-61
2021/04/24 05:24:51;;;;;;;6.50;4.25;;;;;;;;;;4974703;28;20015;-61
2021/04/24 05:27:16;;;;;;;5.68;4.00;;;;;;;;;;4971864;28;20038;-61
2021/04/24 05:29:42;;;;;;;7.05;5.90;;;;;;;;;;4972403;28;20471;-59
2021/04/24 05:32:07;;;;;;;13.23;6.55;;;;;;;;;;4962040;28;20026;-60
2021/04/24 05:34:33;;;;;;;9.77;5.15;;;;;;;;;;4974311;28;20034;-61
2021/04/24 05:36:59;;;;;;;7.30;3.28;;;;;;;;;;4972605;28;20031;-61
2021/04/24 05:39:24;;;;;;;4.15;3.60;;;;;;;;;;4969763;28;20077;-61
2021/04/24 05:41:50;;;;;;;8.45;4.15;;;;;;;;;;4971429;28;20035;-61
2021/04/24 05:44:15;;;;;;;4.00;3.67;;;;;;;;;;4957722;28;20542;-61
2021/04/24 05:46:41;;;;;;;6.13;3.75;;;;;;;;;;4972970;28;20035;-61
2021/04/24 05:49:07;;;;;;;4.88;4.45;;;;;;;;;;4971942;28;20062;-61
2021/04/24 05:51:32;;;;;;;23.58;6.25;;;;;;;;;;4970899;28;20442;-61
2021/04/24 05:53:57;;;;;;;8.25;5.50;;;;;;;;;;4971175;28;20030;-61
2021/04/24 05:56:23;;;;;;;6.97;5.88;;;;;;;;;;4972330;28;20026;-61
2021/04/24 05:58:49;;;;;;;6.20;5.10;;;;;;;;;;4972079;28;20541;-61
2021/04/24 06:01:14;;;;;;;9.15;6.07;;;;;;;;;;4971508;28;20555;-60
2021/04/24 06:03:40;;;;;;;11.23;7.35;;;;;;;;;;4969680;28;20142;-61
2021/04/24 06:06:05;;;;;;;8.30;7.18;;;;;;;;;;4971706;28;20026;-61
2021/04/24 06:08:30;;;;;;;11.93;8.77;;;;;;;;;;4970067;28;20097;-62
2021/04/24 06:10:56;;;;;;;10.68;8.60;;;;;;;;;;4974575;28;20027;-61
2021/04/24 06:13:21;;;;;;;8.23;7.15;;;;;;;;;;4971492;28;20585;-61
2021/04/24 06:15:47;;;;;;;8.27;7.32;;;;;;;;;;4970352;28;20106;-61
2021/04/24 06:18:12;;;;;;;10.23;5.60;;;;;;;;;;4971715;28;20023;-61
2021/04/24 06:20:37;;;;;;;9.85;7.57;;;;;;;;;;4971695;28;20037;-60
2021/04/24 06:23:03;;;;;;;8.23;6.22;;;;;;;;;;4973199;28;20038;-61
2021/04/24 06:25:29;;;;;;;9.48;6.72;;;;;;;;;;4974007;28;20055;-61
2021/04/24 06:27:54;;;;;;;13.85;8.00;;;;;;;;;;4970362;28;20498;-61
2021/04/24 06:30:21;;;;;;;8.80;7.15;;;;;;;;;;4970997;28;20062;-61
2021/04/24 06:32:47;;;;;;;11.88;8.40;;;;;;;;;;4971878;28;20027;-61
2021/04/24 06:35:13;;;;;;;6.25;2.58;;;;;;;;;;4971251;28;20419;-42
2021/04/24 06:37:38;;;;;;;7.97;6.10;;;;;;;;;;4973111;28;20022;-52
2021/04/24 06:40:04;;;;;;;12.50;7.10;;;;;;;;;;4971667;28;20522;-47
2021/04/24 06:42:30;;;;;;;7.80;6.65;;;;;;;;;;4969460;28;20070;-51
2021/04/24 06:44:55;;;;;;;17.35;5.43;;;;;;;;;;4974387;28;20031;-52
2021/04/24 06:47:20;;;;;;;6.80;6.13;;;;;;;;;;4973434;28;20029;-49
2021/04/24 06:49:46;;;;;;;7.20;5.57;;;;;;;;;;4971514;28;20078;-50
2021/04/24 06:52:11;;;;;;;12.73;4.90;;;;;;;;;;4973981;28;20034;-50
2021/04/24 06:54:36;;;;;;;6.65;5.30;;;;;;;;;;4970219;28;20023;-51
2021/04/24 06:57:02;;;;;;;12.27;6.55;;;;;;;;;;4973341;28;20491;-51
2021/04/24 06:59:27;;;;;;;18.05;5.07;;;;;;;;;;4976444;28;20117;-50
2021/04/24 07:01:53;;;;;;;19.42;10.90;;;;;;;;;;4975699;28;20035;-50
2021/04/24 07:04:18;;;;;;;44.08;28.50;;;;;;;;;;4974061;28;20706;-50
2021/04/24 07:06:44;;;;;;;48.92;36.88;;;;;;;;;;4975182;28;20429;-46
2021/04/24 07:09:09;;;;;;;65.35;49.33;;;;;;;;;;4974046;28;20129;-51
2021/04/24 07:11:34;;;;;;;40.88;34.75;;;;;;;;;;4976996;28;20487;-49
2021/04/24 07:14:00;;;;;;;44.15;33.92;;;;;;;;;;4977604;28;20019;-49
2021/04/24 07:16:25;;;;;;;44.60;32.58;;;;;;;;;;4974862;28;20479;-50
2021/04/24 07:18:50;;;;;;;35.40;27.23;;;;;;;;;;4973066;28;20506;-49
2021/04/24 07:21:16;;;;;;;21.35;18.98;;;;;;;;;;4974098;28;20037;-48
2021/04/24 07:23:41;;;;;;;22.27;18.23;;;;;;;;;;4974129;28;20066;-49
2021/04/24 07:26:09;;;;;;;19.05;16.33;;;;;;;;;;4974462;28;20049;-48
2021/04/24 07:28:35;;;;;;;24.63;15.20;;;;;;;;;;4974254;28;20483;-50
2021/04/24 07:31:00;;;;;;;17.90;10.63;;;;;;;;;;4977788;28;20027;-49
2021/04/24 07:33:26;;;;;;;20.92;14.02;;;;;;;;;;4977821;28;20026;-52
2021/04/24 07:35:51;;;;;;;18.92;13.45;;;;;;;;;;4976820;28;20027;-50
2021/04/24 07:38:17;;;;;;;23.40;14.27;;;;;;;;;;4976608;28;20510;-48
2021/04/24 07:40:43;;;;;;;24.30;15.00;;;;;;;;;;4974832;28;20030;-52
2021/04/24 07:43:08;;;;;;;16.88;13.43;;;;;;;;;;4978701;28;20030;-51
2021/04/24 07:45:33;;;;;;;18.95;16.55;;;;;;;;;;4978317;28;20038;-51
2021/04/24 07:47:59;;;;;;;18.58;15.18;;;;;;;;;;4978965;28;20770;-52
2021/04/24 07:50:24;;;;;;;13.13;11.60;;;;;;;;;;4973567;28;20042;-52
2021/04/24 07:52:49;;;;;;;13.88;11.05;;;;;;;;;;4976042;28;20043;-51
2021/04/24 07:55:15;;;;;;;13.35;6.68;;;;;;;;;;4973355;28;20034;-53
2021/04/24 07:57:40;;;;;;;8.07;6.22;;;;;;;;;;4972616;28;20137;-50
2021/04/24 08:00:06;;;;;;;13.02;7.82;;;;;;;;;;4958177;28;20531;-50
2021/04/24 08:02:32;;;;;;;16.17;9.75;;;;;;;;;;4975445;28;20027;-50
2021/04/24 08:04:57;;;;;;;13.23;5.53;;;;;;;;;;4972241;28;20054;-49
2021/04/24 08:07:23;;;;;;;11.38;5.72;;;;;;;;;;4972613;28;20062;-55
2021/04/24 08:09:48;;;;;;;5.40;4.30;;;;;;;;;;4975657;28;20035;-48
2021/04/24 08:12:13;;;;;;;7.47;5.32;;;;;;;;;;4972098;28;20391;-48
2021/04/24 08:14:39;;;;;;;12.27;8.50;;;;;;;;;;4972977;28;20038;-49
2021/04/24 08:17:04;;;;;;;7.32;6.63;;;;;;;;;;4971957;28;20050;-48
2021/04/24 08:19:30;;;;;;;10.10;4.22;;;;;;;;;;4971758;28;20111;-51
2021/04/24 08:21:58;;;;;;;8.07;2.78;;;;;;;;;;4972905;28;20031;-52
2021/04/24 08:24:24;;;;;;;4.68;2.38;;;;;;;;;;4975391;28;20096;-47
2021/04/24 08:26:50;;;;;;;4.10;2.17;;;;;;;;;;4974711;28;20467;-57
2021/04/24 08:29:16;;;;;;;4.97;3.00;;;;;;;;;;4972162;28;20034;-47
2021/04/24 08:31:43;;;;;;;6.30;3.35;;;;;;;;;;4972887;28;20049;-55
2021/04/24 08:34:09;;;;;;;3.88;2.70;;;;;;;;;;4976872;28;20062;-48
2021/04/24 08:36:35;;;;;;;3.90;2.42;;;;;;;;;;4981880;28;20467;-46
2021/04/24 08:39:00;;;;;;;3.05;2.08;;;;;;;;;;4978433;28;20026;-46
2021/04/24 08:41:25;;;;;;;4.75;2.58;;;;;;;;;;4973387;28;20019;-46
2021/04/24 08:43:56;;;;;;;4.15;1.95;;;;;;;;;;4972690;28;20031;-44
2021/04/24 08:46:22;;;;;;;1.85;1.23;;;;;;;;;;4974829;28;20101;-44
2021/04/24 08:48:47;;;;;;;3.38;2.42;;;;;;;;;;4972385;28;20070;-44
2021/04/24 08:51:13;;;;;;;2.55;1.88;;;;;;;;;;4973005;28;20046;-45
2021/04/24 08:53:39;;;;;;;4.55;2.30;;;;;;;;;;4972791;28;20041;-47
2021/04/24 08:56:04;;;;;;;4.40;2.85;;;;;;;;;;4970118;28;20022;-50
2021/04/24 08:58:30;;;;;;;3.38;2.63;;;;;;;;;;4978008;28;20077;-43
2021/04/24 09:00:55;;;;;;;7.05;5.63;;;;;;;;;;4969975;28;20546;-48
2021/04/24 09:03:21;;;;;;;8.02;6.13;;;;;;;;;;4970877;28;20046;-46
2021/04/24 09:05:53;;;;;;;17.15;7.82;;;;;;;;;;4970904;28;20034;-45
2021/04/24 09:08:26;;;;;;;5.22;4.65;;;;;;;;;;4972239;28;20058;-50
2021/04/24 09:10:55;;;;;;;8.55;3.78;;;;;;;;;;4971942;28;20035;-46
2021/04/24 09:13:24;;;;;;;7.93;3.88;;;;;;;;;;4970737;28;20505;-45
2021/04/24 09:15:50;;;;;;;4.47;2.97;;;;;;;;;;4972492;28;20256;-48
2021/04/24 09:18:16;;;;;;;4.97;3.47;;;;;;;;;;4972049;28;20023;-46
2021/04/24 09:20:47;;;;;;;16.98;3.58;;;;;;;;;;4971308;28;20053;-49
2021/04/24 09:23:17;;;;;;;6.57;3.22;;;;;;;;;;4969798;28;20411;-46
2021/04/24 09:25:46;;;;;;;5.32;3.33;;;;;;;;;;4970466;28;20038;-43
2021/04/24 09:28:12;;;;;;;4.60;2.85;;;;;;;;;;4957011;28;20061;-45
2021/04/24 09:30:39;;;;;;;4.68;2.65;;;;;;;;;;4971449;28;20443;-46
2021/04/24 09:33:06;;;;;;;8.45;2.85;;;;;;;;;;4972047;28;20069;-46
2021/04/24 09:35:57;;;;;;;2.72;1.35;;;;;;;;;;4977433;28;20530;-42
2021/04/24 09:38:23;;;;;;;4.85;3.40;;;;;;;;;;4966106;28;20043;-47
2021/04/24 09:41:00;;;;;;;16.27;3.58;;;;;;;;;;4971923;28;20610;-34
2021/04/24 09:43:25;;;;;;;3.53;2.60;;;;;;;;;;4970832;28;20022;-45
2021/04/24 09:45:51;;;;;;;3.17;2.15;;;;;;;;;;4970444;28;20027;-44
2021/04/24 09:48:20;;;;;;;3.17;2.70;;;;;;;;;;4970488;28;20113;-46
2021/04/24 09:50:46;;;;;;;4.95;3.63;;;;;;;;;;4969778;28;20122;-43
2021/04/24 09:53:25;;;;;;;4.97;2.13;;;;;;;;;;4966258;28;20685;-46
2021/04/24 09:55:51;;;;;;;4.50;2.70;;;;;;;;;;4967492;28;20022;-44
2021/04/24 09:58:26;;;;;;;7.15;3.60;;;;;;;;;;4956815;28;20019;-46
2021/04/24 10:00:51;;;;;;;4.65;2.60;;;;;;;;;;4972463;28;20030;-49
2021/04/24 10:03:35;;;;;;;4.57;3.63;;;;;;;;;;4971618;28;20030;-46
2021/04/24 10:06:19;;;;;;;7.38;3.35;;;;;;;;;;4969752;28;20034;-44
2021/04/24 10:08:44;;;;;;;9.80;3.80;;;;;;;;;;4967747;28;20097;-46
2021/04/24 10:11:10;;;;;;;6.07;4.40;;;;;;;;;;4966800;28;20600;-50
2021/04/24 10:13:38;;;;;;;2.42;1.95;;;;;;;;;;4968948;28;20058;-52
2021/04/24 10:16:06;;;;;;;4.40;2.65;;;;;;;;;;4970761;28;20045;-49
2021/04/24 10:18:34;;;;;;;3.55;2.55;;;;;;;;;;4969703;28;20031;-45
2021/04/24 10:20:59;;;;;;;4.30;2.45;;;;;;;;;;4969681;28;20022;-49
2021/04/24 10:23:25;;;;;;;7.15;2.70;;;;;;;;;;4970171;28;20077;-48
2021/04/24 10:25:50;;;;;;;1.98;1.63;;;;;;;;;;4968750;28;20077;-47
2021/04/24 10:28:16;;;;;;;7.70;2.83;;;;;;;;;;4972761;28;20113;-48
2021/04/24 10:30:42;;;;;;;6.68;2.50;;;;;;;;;;4970171;28;20514;-42
2021/04/24 10:33:07;;;;;;;4.20;2.90;;;;;;;;;;4966919;28;20134;-42
2021/04/24 10:35:32;;;;;;;2.80;1.67;;;;;;;;;;4973528;28;20522;-50
2021/04/24 10:37:59;;;;;;;1.95;1.25;;;;;;;;;;4976791;28;20415;-41
2021/04/24 10:40:24;;;;;;;2.78;2.00;;;;;;;;;;4970426;28;20019;-52
2021/04/24 10:42:52;;;;;;;2.85;2.03;;;;;;;;;;4972784;28;20037;-51
2021/04/24 10:45:31;;;;;;;3.50;1.92;;;;;;;;;;4970059;28;20023;-47
2021/04/24 10:47:57;;;;;;;3.85;2.58;;;;;;;;;;4969935;28;20553;-43
2021/04/24 10:50:22;;;;;;;2.85;1.65;;;;;;;;;;4971801;28;20445;-54
2021/04/24 10:52:48;;;;;;;1.88;1.20;;;;;;;;;;4969288;28;20486;-45
2021/04/24 10:55:16;;;;;;;5.72;1.15;;;;;;;;;;4970322;28;20018;-45
2021/04/24 10:57:43;;;;;;;8.65;2.67;;;;;;;;;;4969969;28;20106;-39
2021/04/24 11:00:11;;;;;;;3.67;1.88;;;;;;;;;;4968951;28;20031;-41
2021/04/24 11:02:40;;;;;;;3.53;1.70;;;;;;;;;;4967504;28;20030;-43
2021/04/24 11:05:15;;;;;;;2.97;1.83;;;;;;;;;;4956290;28;20073;-43
2021/04/24 11:07:41;;;;;;;2.88;1.92;;;;;;;;;;4968594;28;20050;-45
2021/04/24 11:10:13;;;;;;;2.70;1.65;;;;;;;;;;4968845;28;20022;-44
2021/04/24 11:12:42;;;;;;;2.53;1.88;;;;;;;;;;4969869;28;20387;-45
2021/04/24 11:15:08;;;;;;;4.50;2.10;;;;;;;;;;4972278;28;20018;-42
2021/04/24 11:17:34;;;;;;;3.83;2.05;;;;;;;;;;4969521;28;20038;-42
2021/04/24 11:20:00;;;;;;;2.38;1.83;;;;;;;;;;4966936;28;20083;-42
2021/04/24 11:22:32;;;;;;;3.53;2.05;;;;;;;;;;4971871;28;20030;-43
2021/04/24 11:25:18;;;;;;;5.75;1.10;;;;;;;;;;4969203;28;20034;-41
2021/04/24 11:28:03;;;;;;;3.75;1.55;;;;;;;;;;4965757;28;20038;-42
2021/04/24 11:30:47;;;;;;;1.52;1.05;;;;;;;;;;4972362;28;20565;-42
2021/04/24 11:33:31;;;;;;;1.73;1.42;;;;;;;;;;4972064;28;20026;-43
2021/04/24 11:38:55;;;;;;;2.33;1.40;;;;;;;;;;4966901;28;20047;-42
2021/04/24 11:41:26;;;;;;;2.63;1.63;;;;;;;;;;4966295;28;20031;-43
2021/04/24 11:43:52;;;;;;;5.45;2.30;;;;;;;;;;4969593;28;20550;-46
2021/04/24 11:46:44;;;;;;;5.95;2.67;;;;;;;;;;4972142;28;20023;-44
2021/04/24 11:49:13;;;;;;;3.67;1.77;;;;;;;;;;4968743;28;20082;-45
2021/04/24 11:51:43;;;;;;;4.40;2.88;;;;;;;;;;4974996;28;20018;-41
2021/04/24 11:54:10;;;;;;;2.78;1.20;;;;;;;;;;4975428;28;20033;-39
2021/04/24 11:56:36;;;;;;;2.40;1.30;;;;;;;;;;4958212;28;20046;-40
2021/04/24 11:59:02;;;;;;;1.98;1.75;;;;;;;;;;4972658;28;20065;-40
2021/04/24 12:01:28;;;;;;;5.60;1.65;;;;;;;;;;4972738;28;20476;-42
2021/04/24 12:03:54;;;;;;;2.75;0.90;;;;;;;;;;4972129;28;20027;-38
2021/04/24 12:06:54;;;;;;;1.10;0.65;;;;;;;;;;4972412;28;20029;-39
2021/04/24 12:09:19;;;;;;;1.63;1.10;;;;;;;;;;4923509;28;20055;-38
2021/04/24 12:11:56;;;;;;;1.98;1.77;;;;;;;;;;4973113;28;20302;-40
2021/04/24 12:14:21;;;;;;;3.17;1.90;;;;;;;;;;4972837;28;20027;-40
2021/04/24 12:16:48;;;;;;;2.70;1.75;;;;;;;;;;4973019;28;20074;-43
2021/04/24 12:19:20;;;;;;;1.60;1.10;;;;;;;;;;4975043;28;20065;-42
2021/04/24 12:21:46;;;;;;;1.70;1.23;;;;;;;;;;4971808;28;20085;-44
2021/04/24 12:24:11;;;;;;;3.80;1.23;;;;;;;;;;4972678;28;20030;-39
2021/04/24 12:26:36;;;;;;;4.55;1.60;;;;;;;;;;4974114;28;20026;-45
2021/04/24 12:29:06;;;;;;;2.63;1.67;;;;;;;;;;4975160;28;20104;-40
2021/04/24 12:31:31;;;;;;;1.30;0.88;;;;;;;;;;4971628;28;20610;-41
2021/04/24 12:33:57;;;;;;;2.47;1.85;;;;;;;;;;4972004;28;20071;-40
2021/04/24 12:36:22;;;;;;;5.43;2.05;;;;;;;;;;4972125;28;20037;-42
2021/04/24 12:38:48;;;;;;;1.48;0.85;;;;;;;;;;4971975;28;20450;-42
2021/04/24 12:41:13;;;;;;;2.45;1.25;;;;;;;;;;4973403;28;20023;-38
2021/04/24 12:43:40;;;;;;;1.42;1.02;;;;;;;;;;4976689;28;20648;-41
2021/04/24 12:46:10;;;;;;;2.45;0.88;;;;;;;;;;4973002;28;20102;-39
2021/04/24 12:48:59;;;;;;;2.10;1.52;;;;;;;;;;4971890;28;20110;-41
2021/04/24 12:51:24;;;;;;;1.63;0.98;;;;;;;;;;4971002;28;20039;-39
2021/04/24 12:53:51;;;;;;;8.40;2.03;;;;;;;;;;4971028;28;20038;-42
2021/04/24 12:56:21;;;;;;;5.13;2.80;;;;;;;;;;4975196;28;20019;-42
2021/04/24 12:58:49;;;;;;;5.32;2.42;;;;;;;;;;4976961;28;20049;-39
2021/04/24 13:01:16;;;;;;;2.70;1.95;;;;;;;;;;4971674;28;20015;-40
2021/04/24 13:03:42;;;;;;;2.92;1.85;;;;;;;;;;4979372;28;20081;-39
2021/04/24 13:06:23;;;;;;;5.53;1.85;;;;;;;;;;4974920;28;20065;-39
2021/04/24 13:09:01;;;;;;;1.65;1.20;;;;;;;;;;4970329;28;20047;-40
2021/04/24 13:11:37;;;;;;;3.33;2.40;;;;;;;;;;4971656;28;20110;-40
2021/04/24 13:14:28;;;;;;;5.93;2.88;;;;;;;;;;4972260;28;20060;-42
2021/04/24 13:16:54;;;;;;;2.33;1.30;;;;;;;;;;4966593;28;20031;-40
2021/04/24 13:19:21;;;;;;;2.72;1.75;;;;;;;;;;4970830;28;20023;-39
2021/04/24 13:21:48;;;;;;;3.13;1.80;;;;;;;;;;4975467;28;20109;-44
2021/04/24 13:24:19;;;;;;;3.40;1.88;;;;;;;;;;4973470;28;20035;-42
2021/04/24 13:26:51;;;;;;;1.73;1.08;;;;;;;;;;4971473;28;20078;-44
2021/04/24 13:29:18;;;;;;;5.40;1.98;;;;;;;;;;4975046;28;20019;-44
2021/04/24 13:31:44;;;;;;;7.13;2.33;;;;;;;;;;4973433;28;20029;-43
2021/04/24 13:34:15;;;;;;;3.25;2.08;;;;;;;;;;4978920;28;20031;-47
2021/04/24 13:36:40;;;;;;;;;;;;;;;;;;4976403;28;20102;-44
2021/04/24 13:39:05;;;;;;;2.70;2.05;;;;;;;;;;4974464;28;20367;-45
2021/04/24 13:41:36;;;;;;;2.38;1.58;;;;;;;;;;4973877;28;20034;-42
2021/04/24 13:44:09;;;;;;;3.60;1.75;;;;;;;;;;4972185;28;20065;-43
2021/04/24 13:46:34;;;;;;;4.25;2.47;;;;;;;;;;4973978;28;20194;-44
2021/04/24 13:49:20;;;;;;;3.08;2.08;;;;;;;;;;4975349;28;20103;-47
2021/04/24 13:51:46;;;;;;;1.48;1.00;;;;;;;;;;4970736;28;20043;-50
2021/04/24 13:54:11;;;;;;;2.45;1.90;;;;;;;;;;4974316;28;20113;-46
2021/04/24 13:56:36;;;;;;;2.53;1.92;;;;;;;;;;4971549;28;20114;-46
2021/04/24 13:59:06;;;;;;;6.07;1.13;;;;;;;;;;4969957;28;20038;-44
2021/04/24 14:01:32;;;;;;;4.30;2.05;;;;;;;;;;4970252;28;20021;-46
2021/04/24 14:03:57;;;;;;;1.15;0.75;;;;;;;;;;4971846;28;20412;-44
2021/04/24 14:06:22;;;;;;;3.42;1.98;;;;;;;;;;4972005;28;20029;-46
2021/04/24 14:08:48;;;;;;;3.63;0.77;;;;;;;;;;4973192;28;20062;-47
2021/04/24 14:11:13;;;;;;;2.22;1.95;;;;;;;;;;4970790;28;20423;-46
2021/04/24 14:13:39;;;;;;;4.18;1.77;;;;;;;;;;4974277;28;20503;-47
2021/04/24 14:16:05;;;;;;;2.75;1.77;;;;;;;;;;4971077;28;20025;-47
2021/04/24 14:18:30;;;;;;;2.15;0.93;;;;;;;;;;4970889;28;20050;-47
2021/04/24 14:20:56;;;;;;;3.60;1.95;;;;;;;;;;4959093;28;20107;-45
2021/04/24 14:23:21;;;;;;;3.83;1.85;;;;;;;;;;4967991;28;20038;-45
2021/04/24 14:25:46;;;;;;;5.50;2.63;;;;;;;;;;4974407;28;20105;-44
2021/04/24 14:28:11;;;;;;;1.83;1.05;;;;;;;;;;4970324;28;20035;-44
2021/04/24 14:30:37;;;;;;;1.90;1.38;;;;;;;;;;4969545;28;20027;-47
2021/04/24 14:33:02;;;;;;;21.88;4.45;;;;;;;;;;4968998;28;20572;-45
2021/04/24 14:35:27;;;;;;;3.42;1.95;;;;;;;;;;4971225;28;20031;-49
2021/04/24 14:37:53;;;;;;;3.97;2.40;;;;;;;;;;4968375;28;20019;-44
2021/04/24 14:40:19;;;;;;;7.70;1.60;;;;;;;;;;4969896;28;20019;-50